sensor_id;sensor_type;location;lat;lon;timestamp;temperature;humidity
10968;DHT22;5536;49.602;10.980;2023-02-13T00:01:03;2.20;99.90
10968;DHT22;5536;49.602;10.980;2023-02-13T00:03:33;2.10;99.90
10968;DHT22;5536;49.602;10.980;2023-02-13T00:06:03;2.10;99.90
10968;DHT22;5536;49.602;10.980;2023-02-13T00:08:30;2.00;99.90
10968;DHT22;5536;49.602;10.980;2023-02-13T00:10:57;2.00;99.90
10968;DHT22;5536;49.602;10.980;2023-02-13T00:13:25;2.00;99.90
10968;DHT22;5536;49.602;10.980;2023-02-13T00:15:56;1.90;99.90
10968;DHT22;5536;49.602;10.980;2023-02-13T00:18:23;1.90;99.90
10968;DHT22;5536;49.602;10.980;2023-02-13T00:20:57;1.80;99.90
10968;DHT22;5536;49.602;10.980;2023-02-13T00:23:24;1.70;99.90
10968;DHT22;5536;49.602;10.980;2023-02-13T00:25:51;1.60;99.90
10968;DHT22;5536;49.602;10.980;2023-02-13T00:28:18;1.50;99.90
10968;DHT22;5536;49.602;10.980;2023-02-13T00:30:46;1.60;99.90
10968;DHT22;5536;49.602;10.980;2023-02-13T00:33:14;1.60;99.90
10968;DHT22;5536;49.602;10.980;2023-02-13T00:35:41;1.70;99.90
10968;DHT22;5536;49.602;10.980;2023-02-13T00:38:08;1.60;99.90
10968;DHT22;5536;49.602;10.980;2023-02-13T00:40:35;1.60;99.90
10968;DHT22;5536;49.602;10.980;2023-02-13T00:43:02;1.60;99.90
10968;DHT22;5536;49.602;10.980;2023-02-13T00:45:29;1.60;99.90
10968;DHT22;5536;49.602;10.980;2023-02-13T00:47:57;1.60;99.90
10968;DHT22;5536;49.602;10.980;2023-02-13T00:50:24;1.60;99.90
10968;DHT22;5536;49.602;10.980;2023-02-13T00:52:51;1.30;99.90
10968;DHT22;5536;49.602;10.980;2023-02-13T00:55:18;1.30;99.90
10968;DHT22;5536;49.602;10.980;2023-02-13T00:57:45;1.10;99.90
10968;DHT22;5536;49.602;10.980;2023-02-13T01:00:13;1.00;99.90
10968;DHT22;5536;49.602;10.980;2023-02-13T01:02:40;1.10;99.90
10968;DHT22;5536;49.602;10.980;2023-02-13T01:07:39;1.00;99.90
10968;DHT22;5536;49.602;10.980;2023-02-13T01:10:08;1.00;99.90
10968;DHT22;5536;49.602;10.980;2023-02-13T01:12:35;1.10;99.90
10968;DHT22;5536;49.602;10.980;2023-02-13T01:15:03;1.10;99.90
10968;DHT22;5536;49.602;10.980;2023-02-13T01:17:30;1.20;99.90
10968;DHT22;5536;49.602;10.980;2023-02-13T01:19:57;1.10;99.90
10968;DHT22;5536;49.602;10.980;2023-02-13T01:22:26;1.10;99.90
10968;DHT22;5536;49.602;10.980;2023-02-13T01:24:55;1.10;99.90
10968;DHT22;5536;49.602;10.980;2023-02-13T01:27:22;1.10;99.90
10968;DHT22;5536;49.602;10.980;2023-02-13T01:29:50;1.00;99.90
10968;DHT22;5536;49.602;10.980;2023-02-13T01:32:17;1.00;99.90
10968;DHT22;5536;49.602;10.980;2023-02-13T01:34:44;1.00;99.90
10968;DHT22;5536;49.602;10.980;2023-02-13T01:37:13;0.90;99.90
10968;DHT22;5536;49.602;10.980;2023-02-13T01:39:40;0.90;99.90
10968;DHT22;5536;49.602;10.980;2023-02-13T01:42:15;1.00;99.90
10968;DHT22;5536;49.602;10.980;2023-02-13T01:44:51;1.00;99.90
10968;DHT22;5536;49.602;10.980;2023-02-13T01:47:25;1.00;99.90
10968;DHT22;5536;49.602;10.980;2023-02-13T01:50:02;1.10;99.90
10968;DHT22;5536;49.602;10.980;2023-02-13T01:52:32;1.10;99.90
10968;DHT22;5536;49.602;10.980;2023-02-13T01:55:00;1.10;99.90
10968;DHT22;5536;49.602;10.980;2023-02-13T01:57:31;1.10;99.90
10968;DHT22;5536;49.602;10.980;2023-02-13T02:00:02;1.10;99.90
10968;DHT22;5536;49.602;10.980;2023-02-13T02:02:38;1.10;99.90
10968;DHT22;5536;49.602;10.980;2023-02-13T02:05:08;0.90;99.90
10968;DHT22;5536;49.602;10.980;2023-02-13T02:07:38;0.90;99.90
10968;DHT22;5536;49.602;10.980;2023-02-13T02:10:16;1.00;99.90
10968;DHT22;5536;49.602;10.980;2023-02-13T02:12:49;0.90;99.90
10968;DHT22;5536;49.602;10.980;2023-02-13T02:15:18;1.00;99.90
10968;DHT22;5536;49.602;10.980;2023-02-13T02:17:46;1.00;99.90
10968;DHT22;5536;49.602;10.980;2023-02-13T02:20:22;1.10;99.90
10968;DHT22;5536;49.602;10.980;2023-02-13T02:29:30;1.10;99.90
10968;DHT22;5536;49.602;10.980;2023-02-13T02:35:08;1.00;99.90
10968;DHT22;5536;49.602;10.980;2023-02-13T02:37:54;1.00;99.90
10968;DHT22;5536;49.602;10.980;2023-02-13T02:40:35;1.00;99.90
10968;DHT22;5536;49.602;10.980;2023-02-13T02:43:16;1.00;99.90
10968;DHT22;5536;49.602;10.980;2023-02-13T02:45:53;0.90;99.90
10968;DHT22;5536;49.602;10.980;2023-02-13T02:48:31;0.90;99.90
10968;DHT22;5536;49.602;10.980;2023-02-13T02:51:21;0.90;99.90
10968;DHT22;5536;49.602;10.980;2023-02-13T02:53:56;0.90;99.90
10968;DHT22;5536;49.602;10.980;2023-02-13T02:56:33;0.90;99.90
10968;DHT22;5536;49.602;10.980;2023-02-13T02:59:04;0.80;99.90
10968;DHT22;5536;49.602;10.980;2023-02-13T03:01:51;0.80;99.90
10968;DHT22;5536;49.602;10.980;2023-02-13T03:04:41;0.80;99.90
10968;DHT22;5536;49.602;10.980;2023-02-13T03:07:26;0.70;99.90
10968;DHT22;5536;49.602;10.980;2023-02-13T03:09:56;0.60;99.90
10968;DHT22;5536;49.602;10.980;2023-02-13T03:12:45;0.60;99.90
10968;DHT22;5536;49.602;10.980;2023-02-13T03:15:31;0.60;99.90
10968;DHT22;5536;49.602;10.980;2023-02-13T03:17:59;0.60;99.90
10968;DHT22;5536;49.602;10.980;2023-02-13T03:20:53;0.60;99.90
10968;DHT22;5536;49.602;10.980;2023-02-13T03:23:44;0.60;99.90
10968;DHT22;5536;49.602;10.980;2023-02-13T03:26:37;0.60;99.90
10968;DHT22;5536;49.602;10.980;2023-02-13T03:29:32;0.60;99.90
10968;DHT22;5536;49.602;10.980;2023-02-13T03:32:24;0.60;99.90
10968;DHT22;5536;49.602;10.980;2023-02-13T03:35:02;0.60;99.90
10968;DHT22;5536;49.602;10.980;2023-02-13T03:37:54;0.60;99.90
10968;DHT22;5536;49.602;10.980;2023-02-13T03:40:29;0.60;99.90
10968;DHT22;5536;49.602;10.980;2023-02-13T03:43:03;0.70;99.90
10968;DHT22;5536;49.602;10.980;2023-02-13T03:45:37;0.70;99.90
10968;DHT22;5536;49.602;10.980;2023-02-13T03:48:24;0.70;99.90
10968;DHT22;5536;49.602;10.980;2023-02-13T03:51:11;0.60;99.90
10968;DHT22;5536;49.602;10.980;2023-02-13T03:53:45;0.60;99.90
10968;DHT22;5536;49.602;10.980;2023-02-13T03:56:15;0.70;99.90
10968;DHT22;5536;49.602;10.980;2023-02-13T03:59:02;0.60;99.90
10968;DHT22;5536;49.602;10.980;2023-02-13T04:01:47;0.70;99.90
10968;DHT22;5536;49.602;10.980;2023-02-13T04:04:21;0.60;99.90
10968;DHT22;5536;49.602;10.980;2023-02-13T04:06:52;0.60;99.90
10968;DHT22;5536;49.602;10.980;2023-02-13T04:09:23;0.70;99.90
10968;DHT22;5536;49.602;10.980;2023-02-13T04:11:57;0.70;99.90
10968;DHT22;5536;49.602;10.980;2023-02-13T04:14:29;0.70;99.90
10968;DHT22;5536;49.602;10.980;2023-02-13T04:17:03;0.60;99.90
10968;DHT22;5536;49.602;10.980;2023-02-13T04:19:33;0.60;99.90
10968;DHT22;5536;49.602;10.980;2023-02-13T04:22:01;0.60;99.90
10968;DHT22;5536;49.602;10.980;2023-02-13T04:24:30;0.70;99.90
10968;DHT22;5536;49.602;10.980;2023-02-13T04:26:58;0.70;99.90
10968;DHT22;5536;49.602;10.980;2023-02-13T04:29:26;0.70;99.90
10968;DHT22;5536;49.602;10.980;2023-02-13T04:31:54;0.80;99.90
10968;DHT22;5536;49.602;10.980;2023-02-13T04:34:21;0.90;99.90
10968;DHT22;5536;49.602;10.980;2023-02-13T04:36:48;1.00;99.90
10968;DHT22;5536;49.602;10.980;2023-02-13T04:39:15;1.10;99.90
10968;DHT22;5536;49.602;10.980;2023-02-13T04:41:44;0.90;99.90
10968;DHT22;5536;49.602;10.980;2023-02-13T04:44:13;0.80;99.90
10968;DHT22;5536;49.602;10.980;2023-02-13T04:46:40;0.90;99.90
10968;DHT22;5536;49.602;10.980;2023-02-13T04:49:09;0.80;99.90
10968;DHT22;5536;49.602;10.980;2023-02-13T04:51:37;0.70;99.90
10968;DHT22;5536;49.602;10.980;2023-02-13T04:54:04;0.60;99.90
10968;DHT22;5536;49.602;10.980;2023-02-13T04:56:32;0.70;99.90
10968;DHT22;5536;49.602;10.980;2023-02-13T04:59:02;0.60;99.90
10968;DHT22;5536;49.602;10.980;2023-02-13T05:01:30;0.60;99.90
10968;DHT22;5536;49.602;10.980;2023-02-13T05:03:57;0.60;99.90
10968;DHT22;5536;49.602;10.980;2023-02-13T05:06:24;0.70;99.90
10968;DHT22;5536;49.602;10.980;2023-02-13T05:08:52;0.80;99.90
10968;DHT22;5536;49.602;10.980;2023-02-13T05:11:20;1.00;99.90
10968;DHT22;5536;49.602;10.980;2023-02-13T05:13:47;1.00;99.90
10968;DHT22;5536;49.602;10.980;2023-02-13T05:16:17;1.10;99.90
10968;DHT22;5536;49.602;10.980;2023-02-13T05:18:44;1.20;99.90
10968;DHT22;5536;49.602;10.980;2023-02-13T05:21:13;1.00;99.90
10968;DHT22;5536;49.602;10.980;2023-02-13T05:23:57;1.10;99.90
10968;DHT22;5536;49.602;10.980;2023-02-13T05:26:24;1.10;99.90
10968;DHT22;5536;49.602;10.980;2023-02-13T05:28:51;1.10;99.90
10968;DHT22;5536;49.602;10.980;2023-02-13T05:31:39;1.20;99.90
10968;DHT22;5536;49.602;10.980;2023-02-13T05:34:07;1.00;99.90
10968;DHT22;5536;49.602;10.980;2023-02-13T05:36:35;1.00;99.90
10968;DHT22;5536;49.602;10.980;2023-02-13T05:39:03;0.90;99.90
10968;DHT22;5536;49.602;10.980;2023-02-13T05:41:31;0.80;99.90
10968;DHT22;5536;49.602;10.980;2023-02-13T05:43:58;0.80;99.90
10968;DHT22;5536;49.602;10.980;2023-02-13T05:46:26;0.70;99.90
10968;DHT22;5536;49.602;10.980;2023-02-13T05:48:55;0.70;99.90
10968;DHT22;5536;49.602;10.980;2023-02-13T05:51:23;0.80;99.90
10968;DHT22;5536;49.602;10.980;2023-02-13T05:53:53;0.80;99.90
10968;DHT22;5536;49.602;10.980;2023-02-13T05:56:26;0.90;99.90
10968;DHT22;5536;49.602;10.980;2023-02-13T05:58:54;1.00;99.90
10968;DHT22;5536;49.602;10.980;2023-02-13T06:01:22;0.90;99.90
10968;DHT22;5536;49.602;10.980;2023-02-13T06:03:51;0.90;99.90
10968;DHT22;5536;49.602;10.980;2023-02-13T06:06:22;0.80;99.90
10968;DHT22;5536;49.602;10.980;2023-02-13T06:08:50;0.70;99.90
10968;DHT22;5536;49.602;10.980;2023-02-13T06:11:18;0.80;99.90
10968;DHT22;5536;49.602;10.980;2023-02-13T06:13:46;1.00;99.90
10968;DHT22;5536;49.602;10.980;2023-02-13T06:16:13;1.00;99.90
10968;DHT22;5536;49.602;10.980;2023-02-13T06:18:42;1.10;99.90
10968;DHT22;5536;49.602;10.980;2023-02-13T06:21:10;1.20;99.90
10968;DHT22;5536;49.602;10.980;2023-02-13T06:23:43;1.20;99.90
10968;DHT22;5536;49.602;10.980;2023-02-13T06:26:10;1.20;99.90
10968;DHT22;5536;49.602;10.980;2023-02-13T06:28:38;1.00;99.90
10968;DHT22;5536;49.602;10.980;2023-02-13T06:31:07;0.90;99.90
10968;DHT22;5536;49.602;10.980;2023-02-13T06:33:34;1.00;99.90
10968;DHT22;5536;49.602;10.980;2023-02-13T06:36:01;1.00;99.90
10968;DHT22;5536;49.602;10.980;2023-02-13T06:38:28;0.90;99.90
10968;DHT22;5536;49.602;10.980;2023-02-13T06:41:02;0.80;99.90
10968;DHT22;5536;49.602;10.980;2023-02-13T06:43:30;0.90;99.90
10968;DHT22;5536;49.602;10.980;2023-02-13T06:45:57;1.00;99.90
10968;DHT22;5536;49.602;10.980;2023-02-13T06:48:24;1.00;99.90
10968;DHT22;5536;49.602;10.980;2023-02-13T06:50:55;0.80;99.90
10968;DHT22;5536;49.602;10.980;2023-02-13T06:53:23;0.90;99.90
10968;DHT22;5536;49.602;10.980;2023-02-13T06:55:51;0.90;99.90
10968;DHT22;5536;49.602;10.980;2023-02-13T06:58:24;0.90;99.90
10968;DHT22;5536;49.602;10.980;2023-02-13T07:00:52;0.90;99.90
10968;DHT22;5536;49.602;10.980;2023-02-13T07:03:20;0.70;99.90
10968;DHT22;5536;49.602;10.980;2023-02-13T07:05:48;0.80;99.90
10968;DHT22;5536;49.602;10.980;2023-02-13T07:08:17;0.80;99.90
10968;DHT22;5536;49.602;10.980;2023-02-13T07:10:45;0.70;99.90
10968;DHT22;5536;49.602;10.980;2023-02-13T07:13:12;0.70;99.90
10968;DHT22;5536;49.602;10.980;2023-02-13T07:15:41;0.70;99.90
10968;DHT22;5536;49.602;10.980;2023-02-13T07:18:09;0.70;99.90
10968;DHT22;5536;49.602;10.980;2023-02-13T07:20:38;0.60;99.90
10968;DHT22;5536;49.602;10.980;2023-02-13T07:23:05;0.60;99.90
10968;DHT22;5536;49.602;10.980;2023-02-13T07:25:33;0.60;99.90
10968;DHT22;5536;49.602;10.980;2023-02-13T07:28:00;0.60;99.90
10968;DHT22;5536;49.602;10.980;2023-02-13T07:30:29;0.70;99.90
10968;DHT22;5536;49.602;10.980;2023-02-13T07:32:59;0.70;99.90
10968;DHT22;5536;49.602;10.980;2023-02-13T07:35:27;0.70;99.90
10968;DHT22;5536;49.602;10.980;2023-02-13T07:37:54;0.70;99.90
10968;DHT22;5536;49.602;10.980;2023-02-13T07:40:21;0.60;99.90
10968;DHT22;5536;49.602;10.980;2023-02-13T07:42:48;0.60;99.90
10968;DHT22;5536;49.602;10.980;2023-02-13T07:45:16;0.60;99.90
10968;DHT22;5536;49.602;10.980;2023-02-13T07:47:43;0.50;99.90
10968;DHT22;5536;49.602;10.980;2023-02-13T07:50:12;0.50;99.90
10968;DHT22;5536;49.602;10.980;2023-02-13T07:52:39;0.50;99.90
10968;DHT22;5536;49.602;10.980;2023-02-13T07:55:07;0.40;99.90
10968;DHT22;5536;49.602;10.980;2023-02-13T07:57:36;0.60;99.90
10968;DHT22;5536;49.602;10.980;2023-02-13T08:00:04;0.70;99.90
10968;DHT22;5536;49.602;10.980;2023-02-13T08:02:31;0.90;99.90
10968;DHT22;5536;49.602;10.980;2023-02-13T08:04:58;0.90;99.90
10968;DHT22;5536;49.602;10.980;2023-02-13T08:07:27;0.80;99.90
10968;DHT22;5536;49.602;10.980;2023-02-13T08:09:54;0.90;99.90
10968;DHT22;5536;49.602;10.980;2023-02-13T08:12:39;1.00;99.90
10968;DHT22;5536;49.602;10.980;2023-02-13T08:15:08;1.00;99.90
10968;DHT22;5536;49.602;10.980;2023-02-13T08:17:38;1.10;99.90
10968;DHT22;5536;49.602;10.980;2023-02-13T08:20:06;0.90;99.90
10968;DHT22;5536;49.602;10.980;2023-02-13T08:22:37;0.90;99.90
10968;DHT22;5536;49.602;10.980;2023-02-13T08:25:05;1.10;99.90
10968;DHT22;5536;49.602;10.980;2023-02-13T08:27:33;1.20;99.90
10968;DHT22;5536;49.602;10.980;2023-02-13T08:30:00;1.20;99.90
10968;DHT22;5536;49.602;10.980;2023-02-13T08:32:27;1.30;99.90
10968;DHT22;5536;49.602;10.980;2023-02-13T08:34:55;1.30;99.90
10968;DHT22;5536;49.602;10.980;2023-02-13T08:37:23;1.40;99.90
10968;DHT22;5536;49.602;10.980;2023-02-13T08:39:53;1.40;99.90
10968;DHT22;5536;49.602;10.980;2023-02-13T08:42:29;1.40;99.90
10968;DHT22;5536;49.602;10.980;2023-02-13T08:44:56;1.40;99.90
10968;DHT22;5536;49.602;10.980;2023-02-13T08:47:24;1.50;99.90
10968;DHT22;5536;49.602;10.980;2023-02-13T08:49:52;1.60;99.90
10968;DHT22;5536;49.602;10.980;2023-02-13T08:52:19;1.60;99.90
10968;DHT22;5536;49.602;10.980;2023-02-13T08:54:46;1.60;99.90
10968;DHT22;5536;49.602;10.980;2023-02-13T08:57:15;1.50;99.90
10968;DHT22;5536;49.602;10.980;2023-02-13T08:59:42;1.50;99.90
10968;DHT22;5536;49.602;10.980;2023-02-13T09:02:14;1.40;99.90
10968;DHT22;5536;49.602;10.980;2023-02-13T09:04:42;1.40;99.90
10968;DHT22;5536;49.602;10.980;2023-02-13T09:07:10;1.50;99.90
10968;DHT22;5536;49.602;10.980;2023-02-13T09:09:38;1.40;99.90
10968;DHT22;5536;49.602;10.980;2023-02-13T09:12:06;1.50;99.90
10968;DHT22;5536;49.602;10.980;2023-02-13T09:14:36;1.40;99.90
10968;DHT22;5536;49.602;10.980;2023-02-13T09:17:05;1.40;99.90
10968;DHT22;5536;49.602;10.980;2023-02-13T09:19:32;1.50;99.90
10968;DHT22;5536;49.602;10.980;2023-02-13T09:22:01;1.50;99.90
10968;DHT22;5536;49.602;10.980;2023-02-13T09:24:28;1.60;99.90
10968;DHT22;5536;49.602;10.980;2023-02-13T09:26:56;1.40;99.90
10968;DHT22;5536;49.602;10.980;2023-02-13T09:29:23;1.70;99.90
10968;DHT22;5536;49.602;10.980;2023-02-13T09:31:51;1.90;99.90
10968;DHT22;5536;49.602;10.980;2023-02-13T09:34:19;2.00;99.90
10968;DHT22;5536;49.602;10.980;2023-02-13T09:36:50;2.10;99.90
10968;DHT22;5536;49.602;10.980;2023-02-13T09:39:17;2.10;99.90
10968;DHT22;5536;49.602;10.980;2023-02-13T09:41:48;2.30;99.90
10968;DHT22;5536;49.602;10.980;2023-02-13T09:44:19;2.30;99.90
10968;DHT22;5536;49.602;10.980;2023-02-13T09:47:10;2.40;99.90
10968;DHT22;5536;49.602;10.980;2023-02-13T09:49:45;2.50;99.90
10968;DHT22;5536;49.602;10.980;2023-02-13T09:52:15;2.40;99.90
10968;DHT22;5536;49.602;10.980;2023-02-13T09:54:44;2.50;99.90
10968;DHT22;5536;49.602;10.980;2023-02-13T09:57:17;2.60;99.90
10968;DHT22;5536;49.602;10.980;2023-02-13T09:59:55;2.60;99.90
10968;DHT22;5536;49.602;10.980;2023-02-13T10:02:45;2.50;99.90
10968;DHT22;5536;49.602;10.980;2023-02-13T10:05:33;2.60;99.90
10968;DHT22;5536;49.602;10.980;2023-02-13T10:08:22;2.70;99.90
10968;DHT22;5536;49.602;10.980;2023-02-13T10:11:01;2.60;99.90
10968;DHT22;5536;49.602;10.980;2023-02-13T10:13:44;2.50;99.90
10968;DHT22;5536;49.602;10.980;2023-02-13T10:16:16;2.30;99.90
10968;DHT22;5536;49.602;10.980;2023-02-13T10:18:52;2.50;99.90
10968;DHT22;5536;49.602;10.980;2023-02-13T10:21:22;2.40;99.90
10968;DHT22;5536;49.602;10.980;2023-02-13T10:23:56;2.50;99.90
10968;DHT22;5536;49.602;10.980;2023-02-13T10:26:27;2.50;99.90
10968;DHT22;5536;49.602;10.980;2023-02-13T10:29:11;2.60;99.90
10968;DHT22;5536;49.602;10.980;2023-02-13T10:32:00;2.80;99.90
10968;DHT22;5536;49.602;10.980;2023-02-13T10:34:36;2.90;99.90
10968;DHT22;5536;49.602;10.980;2023-02-13T10:37:11;3.00;99.90
10968;DHT22;5536;49.602;10.980;2023-02-13T10:39:42;3.10;99.90
10968;DHT22;5536;49.602;10.980;2023-02-13T10:42:19;3.20;99.90
10968;DHT22;5536;49.602;10.980;2023-02-13T10:44:56;3.20;99.90
10968;DHT22;5536;49.602;10.980;2023-02-13T10:47:50;3.40;99.90
10968;DHT22;5536;49.602;10.980;2023-02-13T10:50:27;3.50;99.90
10968;DHT22;5536;49.602;10.980;2023-02-13T10:53:10;3.50;99.90
10968;DHT22;5536;49.602;10.980;2023-02-13T10:56:10;3.50;99.90
10968;DHT22;5536;49.602;10.980;2023-02-13T10:59:13;3.40;99.90
10968;DHT22;5536;49.602;10.980;2023-02-13T11:01:50;3.60;99.90
10968;DHT22;5536;49.602;10.980;2023-02-13T11:04:19;3.80;99.90
10968;DHT22;5536;49.602;10.980;2023-02-13T11:06:54;3.90;99.90
10968;DHT22;5536;49.602;10.980;2023-02-13T11:09:22;3.90;99.90
10968;DHT22;5536;49.602;10.980;2023-02-13T11:11:50;3.90;99.90
10968;DHT22;5536;49.602;10.980;2023-02-13T11:14:19;3.80;99.90
10968;DHT22;5536;49.602;10.980;2023-02-13T11:16:50;3.80;99.90
10968;DHT22;5536;49.602;10.980;2023-02-13T11:19:24;3.90;99.90
10968;DHT22;5536;49.602;10.980;2023-02-13T11:21:59;4.20;99.90
10968;DHT22;5536;49.602;10.980;2023-02-13T11:24:29;4.30;99.90
10968;DHT22;5536;49.602;10.980;2023-02-13T11:26:59;4.40;99.90
10968;DHT22;5536;49.602;10.980;2023-02-13T11:29:28;4.60;99.90
10968;DHT22;5536;49.602;10.980;2023-02-13T11:32:03;4.80;99.90
10968;DHT22;5536;49.602;10.980;2023-02-13T11:34:31;4.90;99.90
10968;DHT22;5536;49.602;10.980;2023-02-13T11:37:17;4.90;99.90
10968;DHT22;5536;49.602;10.980;2023-02-13T11:39:46;4.70;99.90
10968;DHT22;5536;49.602;10.980;2023-02-13T11:42:14;5.10;99.90
10968;DHT22;5536;49.602;10.980;2023-02-13T11:44:47;5.50;99.90
10968;DHT22;5536;49.602;10.980;2023-02-13T11:47:15;6.10;99.90
10968;DHT22;5536;49.602;10.980;2023-02-13T11:49:45;6.50;99.90
10968;DHT22;5536;49.602;10.980;2023-02-13T11:52:25;6.70;99.90
10968;DHT22;5536;49.602;10.980;2023-02-13T11:54:56;7.10;99.90
10968;DHT22;5536;49.602;10.980;2023-02-13T11:57:29;7.40;99.90
10968;DHT22;5536;49.602;10.980;2023-02-13T11:59:58;7.40;99.90
10968;DHT22;5536;49.602;10.980;2023-02-13T12:02:27;7.90;99.90
10968;DHT22;5536;49.602;10.980;2023-02-13T12:05:14;8.20;99.90
10968;DHT22;5536;49.602;10.980;2023-02-13T12:07:44;8.60;99.90
10968;DHT22;5536;49.602;10.980;2023-02-13T12:10:17;9.00;99.90
10968;DHT22;5536;49.602;10.980;2023-02-13T12:12:52;9.00;99.90
10968;DHT22;5536;49.602;10.980;2023-02-13T12:15:23;9.20;99.90
10968;DHT22;5536;49.602;10.980;2023-02-13T12:18:02;9.60;99.90
10968;DHT22;5536;49.602;10.980;2023-02-13T12:20:39;9.50;99.90
10968;DHT22;5536;49.602;10.980;2023-02-13T12:23:31;9.50;99.90
10968;DHT22;5536;49.602;10.980;2023-02-13T12:26:25;9.80;99.90
10968;DHT22;5536;49.602;10.980;2023-02-13T12:29:16;10.00;99.90
10968;DHT22;5536;49.602;10.980;2023-02-13T12:31:56;10.40;99.90
10968;DHT22;5536;49.602;10.980;2023-02-13T12:37:49;10.70;99.90
10968;DHT22;5536;49.602;10.980;2023-02-13T12:40:42;11.30;99.90
10968;DHT22;5536;49.602;10.980;2023-02-13T12:43:25;11.80;99.90
10968;DHT22;5536;49.602;10.980;2023-02-13T12:46:02;11.50;99.90
10968;DHT22;5536;49.602;10.980;2023-02-13T12:48:38;11.80;99.90
10968;DHT22;5536;49.602;10.980;2023-02-13T12:51:23;12.20;99.90
10968;DHT22;5536;49.602;10.980;2023-02-13T12:54:06;12.60;99.90
10968;DHT22;5536;49.602;10.980;2023-02-13T12:59:38;12.10;99.90
10968;DHT22;5536;49.602;10.980;2023-02-13T13:02:52;12.40;99.90
10968;DHT22;5536;49.602;10.980;2023-02-13T13:05:31;12.30;99.90
10968;DHT22;5536;49.602;10.980;2023-02-13T13:08:16;12.70;99.90
10968;DHT22;5536;49.602;10.980;2023-02-13T13:10:56;12.80;99.90
10968;DHT22;5536;49.602;10.980;2023-02-13T13:13:42;13.00;99.90
10968;DHT22;5536;49.602;10.980;2023-02-13T13:16:24;13.50;99.90
10968;DHT22;5536;49.602;10.980;2023-02-13T13:19:02;13.70;99.90
10968;DHT22;5536;49.602;10.980;2023-02-13T13:21:40;13.50;99.90
10968;DHT22;5536;49.602;10.980;2023-02-13T13:24:23;13.80;99.90
10968;DHT22;5536;49.602;10.980;2023-02-13T13:26:57;14.10;99.90
10968;DHT22;5536;49.602;10.980;2023-02-13T13:29:35;14.80;99.90
10968;DHT22;5536;49.602;10.980;2023-02-13T13:32:07;15.20;99.90
10968;DHT22;5536;49.602;10.980;2023-02-13T13:34:38;14.60;99.90
10968;DHT22;5536;49.602;10.980;2023-02-13T13:37:10;14.50;99.90
10968;DHT22;5536;49.602;10.980;2023-02-13T13:39:47;14.90;99.90
10968;DHT22;5536;49.602;10.980;2023-02-13T13:42:21;15.20;99.90
10968;DHT22;5536;49.602;10.980;2023-02-13T13:45:15;15.20;99.90
10968;DHT22;5536;49.602;10.980;2023-02-13T13:50:39;15.10;99.90
10968;DHT22;5536;49.602;10.980;2023-02-13T13:53:15;15.30;99.90
10968;DHT22;5536;49.602;10.980;2023-02-13T13:56:15;15.10;99.90
10968;DHT22;5536;49.602;10.980;2023-02-13T13:58:44;15.10;99.90
10968;DHT22;5536;49.602;10.980;2023-02-13T14:01:26;14.30;99.90
10968;DHT22;5536;49.602;10.980;2023-02-13T14:04:01;14.70;99.90
10968;DHT22;5536;49.602;10.980;2023-02-13T14:09:40;14.20;99.90
10968;DHT22;5536;49.602;10.980;2023-02-13T14:12:36;13.30;99.90
10968;DHT22;5536;49.602;10.980;2023-02-13T14:15:03;12.50;99.90
10968;DHT22;5536;49.602;10.980;2023-02-13T14:17:51;11.50;99.90
10968;DHT22;5536;49.602;10.980;2023-02-13T14:20:36;10.70;99.90
10968;DHT22;5536;49.602;10.980;2023-02-13T14:23:25;10.30;99.90
10968;DHT22;5536;49.602;10.980;2023-02-13T14:26:36;9.90;99.90
10968;DHT22;5536;49.602;10.980;2023-02-13T14:29:33;9.70;99.90
10968;DHT22;5536;49.602;10.980;2023-02-13T14:32:12;9.60;99.90
10968;DHT22;5536;49.602;10.980;2023-02-13T14:34:50;9.50;99.90
10968;DHT22;5536;49.602;10.980;2023-02-13T14:37:20;9.60;99.90
10968;DHT22;5536;49.602;10.980;2023-02-13T14:43:05;9.20;99.90
10968;DHT22;5536;49.602;10.980;2023-02-13T14:45:44;9.10;99.90
10968;DHT22;5536;49.602;10.980;2023-02-13T14:48:13;9.20;99.90
10968;DHT22;5536;49.602;10.980;2023-02-13T14:50:45;9.20;99.90
10968;DHT22;5536;49.602;10.980;2023-02-13T14:53:20;8.90;99.90
10968;DHT22;5536;49.602;10.980;2023-02-13T14:55:52;8.90;99.90
10968;DHT22;5536;49.602;10.980;2023-02-13T14:58:24;8.80;99.90
10968;DHT22;5536;49.602;10.980;2023-02-13T15:00:54;8.70;99.90
10968;DHT22;5536;49.602;10.980;2023-02-13T15:03:27;8.60;99.90
10968;DHT22;5536;49.602;10.980;2023-02-13T15:06:00;8.70;99.90
10968;DHT22;5536;49.602;10.980;2023-02-13T15:08:33;8.60;99.90
10968;DHT22;5536;49.602;10.980;2023-02-13T15:11:01;8.60;99.90
10968;DHT22;5536;49.602;10.980;2023-02-13T15:13:33;8.50;99.90
10968;DHT22;5536;49.602;10.980;2023-02-13T15:16:04;8.40;99.90
10968;DHT22;5536;49.602;10.980;2023-02-13T15:18:38;8.40;99.90
10968;DHT22;5536;49.602;10.980;2023-02-13T15:21:14;8.40;99.90
10968;DHT22;5536;49.602;10.980;2023-02-13T15:23:42;8.40;99.90
10968;DHT22;5536;49.602;10.980;2023-02-13T15:26:18;8.30;99.90
10968;DHT22;5536;49.602;10.980;2023-02-13T15:28:58;8.30;99.90
10968;DHT22;5536;49.602;10.980;2023-02-13T15:31:30;8.20;99.90
10968;DHT22;5536;49.602;10.980;2023-02-13T15:33:58;8.20;99.90
10968;DHT22;5536;49.602;10.980;2023-02-13T15:36:34;8.20;99.90
10968;DHT22;5536;49.602;10.980;2023-02-13T15:39:04;8.20;99.90
10968;DHT22;5536;49.602;10.980;2023-02-13T15:41:36;8.20;99.90
10968;DHT22;5536;49.602;10.980;2023-02-13T15:44:04;8.10;99.90
10968;DHT22;5536;49.602;10.980;2023-02-13T15:46:33;8.10;99.90
10968;DHT22;5536;49.602;10.980;2023-02-13T15:49:04;8.00;99.90
10968;DHT22;5536;49.602;10.980;2023-02-13T15:51:33;7.90;99.90
10968;DHT22;5536;49.602;10.980;2023-02-13T15:54:01;7.90;99.90
10968;DHT22;5536;49.602;10.980;2023-02-13T15:56:29;8.00;99.90
10968;DHT22;5536;49.602;10.980;2023-02-13T15:58:58;7.90;99.90
10968;DHT22;5536;49.602;10.980;2023-02-13T16:01:27;7.90;99.90
10968;DHT22;5536;49.602;10.980;2023-02-13T16:04:00;7.80;99.90
10968;DHT22;5536;49.602;10.980;2023-02-13T16:06:28;7.70;99.90
10968;DHT22;5536;49.602;10.980;2023-02-13T16:08:57;7.60;99.90
10968;DHT22;5536;49.602;10.980;2023-02-13T16:11:28;7.50;99.90
10968;DHT22;5536;49.602;10.980;2023-02-13T16:14:03;7.40;99.90
10968;DHT22;5536;49.602;10.980;2023-02-13T16:16:35;7.40;99.90
10968;DHT22;5536;49.602;10.980;2023-02-13T16:19:20;7.30;99.90
10968;DHT22;5536;49.602;10.980;2023-02-13T16:21:49;7.20;99.90
10968;DHT22;5536;49.602;10.980;2023-02-13T16:24:18;7.10;99.90
10968;DHT22;5536;49.602;10.980;2023-02-13T16:26:46;7.00;99.90
10968;DHT22;5536;49.602;10.980;2023-02-13T16:29:17;6.90;99.90
10968;DHT22;5536;49.602;10.980;2023-02-13T16:31:45;6.80;99.90
10968;DHT22;5536;49.602;10.980;2023-02-13T16:34:14;6.70;99.90
10968;DHT22;5536;49.602;10.980;2023-02-13T16:36:41;6.70;99.90
10968;DHT22;5536;49.602;10.980;2023-02-13T16:39:19;6.50;99.90
10968;DHT22;5536;49.602;10.980;2023-02-13T16:41:46;6.40;99.90
10968;DHT22;5536;49.602;10.980;2023-02-13T16:44:27;6.30;99.90
10968;DHT22;5536;49.602;10.980;2023-02-13T16:46:57;6.20;99.90
10968;DHT22;5536;49.602;10.980;2023-02-13T16:49:28;6.10;99.90